Time;durP1;ratioP1;P1;durP2;ratioP2;P2;SDS_P1;SDS_P2;PMS_P1;PMS_P2;Temp;Humidity;BMP_temperature;BMP_pressure;BME280_temperature;BME280_humidity;BME280_pressure;Samples;Min_cycle;Max_cycle;Signal;HPM_P1;HPM_P2
2022/08/04 00:00:25;;;;;;;8.82;2.92;;;21.90;99.90;;;;;;5034500;28;20177;-79
2022/08/04 00:03:11;;;;;;;15.55;3.25;;;22.00;99.90;;;;;;5032849;28;20550;-78
2022/08/04 00:06:02;;;;;;;14.80;2.92;;;22.00;99.90;;;;;;5032037;28;20202;-77
2022/08/04 00:08:54;;;;;;;12.98;3.42;;;22.00;99.90;;;;;;5034129;28;20550;-78
2022/08/04 00:11:22;;;;;;;8.63;3.17;;;22.10;99.90;;;;;;5033567;28;20209;-78
2022/08/04 00:14:01;;;;;;;13.23;3.58;;;21.90;99.90;;;;;;5034009;28;20162;-77
2022/08/04 00:16:30;;;;;;;18.65;3.72;;;21.70;99.90;;;;;;5035871;28;20177;-78
2022/08/04 00:19:03;;;;;;;14.70;3.30;;;21.70;99.90;;;;;;5034136;28;20181;-78
2022/08/04 00:21:35;;;;;;;12.20;3.17;;;21.80;99.90;;;;;;5031738;28;20239;-78
2022/08/04 00:24:01;;;;;;;17.17;3.10;;;21.70;99.90;;;;;;5032666;28;20203;-77
2022/08/04 00:26:27;;;;;;;9.15;3.40;;;21.80;99.90;;;;;;5033592;28;20205;-78
2022/08/04 00:28:54;;;;;;;12.35;3.33;;;21.80;99.90;;;;;;5034193;28;20182;-80
2022/08/04 00:31:21;;;;;;;8.00;3.28;;;21.80;99.90;;;;;;5034097;28;20209;-80
2022/08/04 00:33:47;;;;;;;9.18;3.13;;;21.70;99.90;;;;;;5034201;28;20189;-78
2022/08/04 00:36:15;;;;;;;12.57;3.53;;;21.70;99.90;;;;;;5035324;28;20174;-78
2022/08/04 00:38:43;;;;;;;12.38;3.38;;;21.50;99.90;;;;;;5036077;28;20311;-78
2022/08/04 00:41:41;;;;;;;15.02;3.45;;;21.50;99.90;;;;;;5034655;28;20170;-80
2022/08/04 00:44:28;;;;;;;11.48;3.55;;;21.50;99.90;;;;;;5033872;28;20233;-77
2022/08/04 00:46:54;;;;;;;12.70;3.55;;;21.50;99.90;;;;;;5035277;28;20213;-79
2022/08/04 00:49:46;;;;;;;18.17;3.97;;;21.50;99.90;;;;;;5035399;28;20178;-79
2022/08/04 00:52:17;;;;;;;9.23;3.38;;;21.60;99.90;;;;;;5030252;28;20693;-79
2022/08/04 00:54:46;;;;;;;18.83;3.78;;;21.50;99.90;;;;;;5038025;28;20198;-77
2022/08/04 00:57:35;;;;;;;16.17;3.58;;;21.40;99.90;;;;;;5038313;28;20192;-78
2022/08/04 01:00:10;;;;;;;10.65;3.40;;;21.50;99.90;;;;;;5038957;28;20228;-78
2022/08/04 01:02:45;;;;;;;15.30;3.38;;;21.50;99.90;;;;;;5038721;28;20177;-79
2022/08/04 01:05:32;;;;;;;9.85;3.45;;;21.20;99.90;;;;;;5037882;28;20197;-77
2022/08/04 01:08:13;;;;;;;14.68;3.53;;;21.40;99.90;;;;;;5037711;28;20185;-80
2022/08/04 01:11:02;;;;;;;14.02;4.05;;;21.40;99.90;;;;;;5037807;28;20209;-78
2022/08/04 01:13:55;;;;;;;8.75;3.42;;;21.50;99.90;;;;;;5037074;28;20657;-78
2022/08/04 01:16:25;;;;;;;12.73;3.10;;;21.30;99.90;;;;;;5037709;28;20510;-79
2022/08/04 01:19:06;;;;;;;15.15;3.25;;;21.50;99.90;;;;;;5037776;28;20654;-79
2022/08/04 01:21:38;;;;;;;12.40;3.15;;;21.60;99.90;;;;;;5037216;28;20740;-80
2022/08/04 01:24:28;;;;;;;8.20;3.20;;;21.60;99.90;;;;;;5037646;28;20176;-79
2022/08/04 01:27:10;;;;;;;11.30;3.45;;;21.60;99.90;;;;;;5038866;28;20162;-80
2022/08/04 01:29:55;;;;;;;9.45;2.60;;;21.50;99.90;;;;;;5037610;28;20269;-79
2022/08/04 01:32:35;;;;;;;12.48;2.92;;;21.70;99.90;;;;;;5037899;28;20247;-80
2022/08/04 01:35:27;;;;;;;9.32;3.08;;;21.60;99.90;;;;;;5037583;28;20196;-79
2022/08/04 01:38:02;;;;;;;10.27;3.20;;;21.70;99.90;;;;;;5038165;28;20646;-78
2022/08/04 01:40:29;;;;;;;9.70;3.00;;;21.80;99.90;;;;;;5036178;28;20181;-78
2022/08/04 01:42:57;;;;;;;13.35;2.90;;;21.80;99.90;;;;;;5036608;28;20265;-79
2022/08/04 01:45:24;;;;;;;7.43;2.75;;;21.70;99.90;;;;;;5036493;28;20198;-78
2022/08/04 01:47:52;;;;;;;9.00;3.53;;;21.60;99.90;;;;;;5036887;28;20177;-79
2022/08/04 01:50:19;;;;;;;12.90;3.22;;;21.70;99.90;;;;;;5037790;28;20167;-78
2022/08/04 01:52:44;;;;;;;13.52;3.50;;;21.80;99.90;;;;;;5036503;28;20544;-80
2022/08/04 01:55:12;;;;;;;11.38;3.17;;;21.70;99.90;;;;;;5037018;28;20186;-78
2022/08/04 01:57:49;;;;;;;9.88;2.90;;;21.80;99.90;;;;;;5036213;28;20260;-80
2022/08/04 02:00:18;;;;;;;9.35;3.00;;;21.70;99.90;;;;;;5036829;28;20201;-78
2022/08/04 02:02:45;;;;;;;13.25;3.15;;;21.60;99.90;;;;;;5035658;28;20174;-81
2022/08/04 02:05:14;;;;;;;8.70;2.85;;;21.80;99.90;;;;;;5035673;28;20669;-78
2022/08/04 02:08:03;;;;;;;9.95;2.75;;;21.90;99.90;;;;;;5035367;28;20210;-78
2022/08/04 02:10:49;;;;;;;6.97;2.50;;;21.80;99.90;;;;;;5035897;28;20201;-78
2022/08/04 02:13:15;;;;;;;11.80;3.20;;;21.90;99.90;;;;;;5035790;28;20182;-80
2022/08/04 02:16:09;;;;;;;13.68;3.92;;;21.70;99.90;;;;;;5036036;28;20190;-79
2022/08/04 02:19:01;;;;;;;12.40;2.97;;;21.80;99.90;;;;;;5036449;28;20166;-79
2022/08/04 02:21:30;;;;;;;13.40;3.28;;;21.80;99.90;;;;;;5035125;28;20186;-79
2022/08/04 02:24:07;;;;;;;17.30;3.13;;;21.80;99.90;;;;;;5035643;28;20182;-80
2022/08/04 02:26:34;;;;;;;10.20;3.45;;;21.70;99.90;;;;;;5035895;28;20616;-77
2022/08/04 02:29:10;;;;;;;13.10;3.33;;;21.60;99.90;;;;;;5036213;28;20539;-80
2022/08/04 02:32:03;;;;;;;13.15;3.55;;;21.50;99.90;;;;;;5036346;28;20201;-78
2022/08/04 02:35:03;;;;;;;14.43;3.55;;;21.60;99.90;;;;;;5035119;28;20573;-77
2022/08/04 02:37:33;;;;;;;10.20;3.60;;;21.70;99.90;;;;;;5024922;28;20184;-78
2022/08/04 02:40:02;;;;;;;13.32;3.60;;;21.70;99.90;;;;;;5035231;28;20170;-79
2022/08/04 02:42:28;;;;;;;14.27;3.25;;;21.60;99.90;;;;;;5034919;28;20174;-79
2022/08/04 02:44:58;;;;;;;10.05;3.35;;;21.60;99.90;;;;;;5035527;28;20303;-77
2022/08/04 02:47:25;;;;;;;13.65;3.30;;;21.60;99.90;;;;;;5036933;28;20181;-77
2022/08/04 02:49:53;;;;;;;9.38;2.85;;;21.60;99.90;;;;;;5035774;28;20177;-78
2022/08/04 02:52:19;;;;;;;6.30;3.20;;;21.50;99.90;;;;;;5035221;28;20723;-78
2022/08/04 02:54:49;;;;;;;20.20;3.70;;;21.50;99.90;;;;;;5035937;28;20194;-77
2022/08/04 02:57:17;;;;;;;11.25;3.10;;;21.60;99.90;;;;;;5050401;22;20225;-80
2022/08/04 03:00:05;;;;;;;8.32;3.10;;;21.70;99.90;;;;;;5043972;28;20673;-80
2022/08/04 03:02:47;;;;;;;15.02;3.10;;;21.60;99.90;;;;;;5042246;28;20190;-81
2022/08/04 03:05:18;;;;;;;9.25;3.47;;;21.60;99.90;;;;;;5042311;28;20257;-80
2022/08/04 03:07:56;;;;;;;14.20;3.95;;;21.30;99.90;;;;;;5042663;28;20174;-80
2022/08/04 03:10:41;;;;;;;10.75;3.38;;;21.40;99.90;;;;;;5043863;28;20184;-80
2022/08/04 03:13:24;;;;;;;9.88;3.42;;;21.30;99.90;;;;;;5043342;23;20221;-82
2022/08/04 03:16:19;;;;;;;11.80;3.90;;;21.20;99.90;;;;;;5017085;28;20607;-82
2022/08/04 03:19:25;;;;;;;11.95;3.47;;;21.20;99.90;;;;;;5017939;28;20170;-82
2022/08/04 03:22:25;;;;;;;15.25;3.67;;;21.30;99.90;;;;;;5035036;28;20285;-82
2022/08/04 03:25:13;;;;;;;15.07;3.38;;;21.20;99.90;;;;;;5029017;28;20284;-82
2022/08/04 03:27:57;;;;;;;9.25;3.33;;;21.20;99.90;;;;;;5015504;28;20182;-82
2022/08/04 03:30:32;;;;;;;10.63;4.05;;;21.30;99.90;;;;;;5015333;28;20181;-82
2022/08/04 03:33:00;;;;;;;10.77;3.58;;;21.30;99.90;;;;;;5015503;28;20666;-81
2022/08/04 03:35:51;;;;;;;8.95;3.35;;;21.20;99.90;;;;;;5015050;28;20224;-83
2022/08/04 03:38:41;;;;;;;13.18;3.45;;;21.10;99.90;;;;;;5015210;28;20249;-83
2022/08/04 03:41:31;;;;;;;13.45;3.65;;;21.20;99.90;;;;;;5015331;28;20537;-82
2022/08/04 03:44:35;;;;;;;12.88;3.50;;;21.20;99.90;;;;;;5015291;28;20224;-81
2022/08/04 03:47:18;;;;;;;16.38;3.80;;;21.00;99.90;;;;;;5015021;28;20642;-83
2022/08/04 03:50:23;;;;;;;14.48;4.13;;;20.90;99.90;;;;;;5015105;28;20292;-82
2022/08/04 03:53:10;;;;;;;13.30;3.83;;;21.00;99.90;;;;;;5014417;28;20217;-83
2022/08/04 03:56:03;;;;;;;12.57;4.25;;;20.90;99.90;;;;;;5015042;28;20190;-81
2022/08/04 03:58:49;;;;;;;14.45;3.35;;;20.90;99.90;;;;;;5014753;28;20665;-82
2022/08/04 04:01:30;;;;;;;17.23;4.15;;;20.90;99.90;;;;;;5015328;28;20180;-83
2022/08/04 04:04:33;;;;;;;12.43;3.80;;;20.80;99.90;;;;;;5014639;28;20184;-81
2022/08/04 04:07:17;;;;;;;20.45;3.72;;;21.00;99.90;;;;;;5014662;28;20192;-83
2022/08/04 04:10:11;;;;;;;11.02;3.33;;;21.00;99.90;;;;;;5014718;28;20551;-82
2022/08/04 04:12:45;;;;;;;10.05;3.60;;;20.80;99.90;;;;;;5015043;28;20209;-81
2022/08/04 04:15:21;;;;;;;8.48;3.90;;;20.90;99.90;;;;;;5014556;28;20193;-82
2022/08/04 04:18:08;;;;;;;14.07;3.95;;;20.80;99.90;;;;;;5015174;28;20197;-82
2022/08/04 04:21:11;;;;;;;11.45;3.55;;;20.70;99.90;;;;;;5014848;28;20173;-83
2022/08/04 04:24:06;;;;;;;11.00;3.55;;;20.70;99.90;;;;;;5017345;28;20209;-82
2022/08/04 04:27:13;;;;;;;10.30;3.45;;;20.90;99.90;;;;;;5013523;28;20642;-82
2022/08/04 04:30:03;;;;;;;10.80;3.25;;;20.80;99.90;;;;;;4942260;29;20188;-83
2022/08/04 04:32:41;;;;;;;7.88;3.88;;;20.80;99.90;;;;;;5021643;28;20210;-82
2022/08/04 04:35:12;;;;;;;14.85;3.55;;;20.80;99.90;;;;;;5021899;28;20557;-83
2022/08/04 04:38:13;;;;;;;15.38;3.97;;;21.00;99.90;;;;;;5023611;28;20169;-82
2022/08/04 04:41:07;;;;;;;12.27;3.42;;;21.20;99.90;;;;;;5035516;28;20319;-82
2022/08/04 04:43:51;;;;;;;13.57;3.90;;;21.10;99.90;;;;;;5021828;28;20173;-83
2022/08/04 04:46:36;;;;;;;12.52;3.90;;;21.20;99.90;;;;;;5021741;28;20169;-83
2022/08/04 04:49:26;;;;;;;11.93;3.47;;;21.20;99.90;;;;;;5023869;28;20217;-80
2022/08/04 04:52:05;;;;;;;10.90;3.50;;;21.20;99.90;;;;;;5023157;28;20666;-80
2022/08/04 04:54:38;;;;;;;10.20;4.00;;;21.50;99.90;;;;;;5022888;28;20343;-80
2022/08/04 04:57:19;;;;;;;17.30;4.40;;;21.50;99.90;;;;;;5023988;28;20200;-80
2022/08/04 04:59:57;;;;;;;12.85;4.60;;;21.60;99.90;;;;;;5023561;28;20198;-80
2022/08/04 05:02:34;;;;;;;14.00;3.95;;;21.70;99.90;;;;;;5022903;28;20679;-80
2022/08/04 05:05:03;;;;;;;13.15;4.60;;;21.80;99.90;;;;;;5023513;28;20198;-82
2022/08/04 05:07:51;;;;;;;12.45;3.72;;;21.80;99.90;;;;;;5022680;28;20177;-83
2022/08/04 05:10:39;;;;;;;15.23;3.67;;;21.70;99.90;;;;;;5022324;28;20201;-81
2022/08/04 05:13:14;;;;;;;17.20;4.82;;;21.80;99.90;;;;;;5022178;28;20228;-81
2022/08/04 05:15:43;;;;;;;23.13;5.18;;;21.90;99.90;;;;;;5022695;28;20211;-81
2022/08/04 05:18:14;;;;;;;14.73;3.90;;;22.00;99.90;;;;;;5023015;28;20760;-80
2022/08/04 05:20:47;;;;;;;14.02;3.80;;;22.10;99.90;;;;;;5022227;28;20182;-81
2022/08/04 05:23:20;;;;;;;20.35;5.55;;;22.20;99.90;;;;;;5021879;28;20192;-81
2022/08/04 05:25:59;;;;;;;17.38;4.70;;;22.40;99.90;;;;;;5023293;28;20198;-81
2022/08/04 05:28:37;;;;;;;15.77;4.10;;;22.50;99.90;;;;;;5022577;28;20178;-81
2022/08/04 05:31:14;;;;;;;14.80;4.25;;;22.70;99.90;;;;;;5022385;28;20181;-80
2022/08/04 05:33:52;;;;;;;13.93;3.42;;;23.00;99.90;;;;;;5023052;28;20170;-81
2022/08/04 05:36:23;;;;;;;14.13;3.50;;;23.10;99.90;;;;;;5023006;28;20224;-81
2022/08/04 05:38:53;;;;;;;14.13;3.67;;;23.30;99.90;;;;;;5021710;28;20269;-81
2022/08/04 05:41:20;;;;;;;10.20;3.20;;;23.40;99.90;;;;;;5022914;28;20180;-81
2022/08/04 05:43:46;;;;;;;12.50;3.13;;;23.50;99.90;;;;;;5022459;28;20200;-80
2022/08/04 05:46:16;;;;;;;11.98;3.13;;;23.60;99.90;;;;;;5023262;28;20658;-81
2022/08/04 05:48:43;;;;;;;23.95;3.75;;;23.70;99.90;;;;;;5022637;28;20221;-81
2022/08/04 05:51:10;;;;;;;11.15;2.78;;;23.70;99.90;;;;;;5022181;28;20177;-81
2022/08/04 05:53:37;;;;;;;12.65;3.33;;;23.70;99.90;;;;;;5022297;28;20265;-81
2022/08/04 05:56:05;;;;;;;14.23;3.35;;;23.70;99.90;;;;;;5040114;28;20208;-81
2022/08/04 05:58:31;;;;;;;8.75;3.35;;;23.70;99.90;;;;;;5022714;28;20166;-81
2022/08/04 06:00:59;;;;;;;19.48;3.08;;;24.00;99.90;;;;;;5022371;28;20567;-81
2022/08/04 06:03:28;;;;;;;13.70;3.15;;;24.10;99.90;;;;;;5021924;28;20638;-81
2022/08/04 06:05:55;;;;;;;9.40;3.22;;;24.30;99.90;;;;;;5022610;28;20198;-81
2022/08/04 06:08:21;;;;;;;13.30;3.70;;;24.40;99.90;;;;;;5022240;28;20170;-81
2022/08/04 06:10:48;;;;;;;10.05;3.10;;;24.40;99.90;;;;;;5022583;28;20170;-81
2022/08/04 06:13:18;;;;;;;10.23;3.47;;;24.50;99.90;;;;;;5021933;28;20214;-81
2022/08/04 06:15:47;;;;;;;9.20;3.47;;;24.90;99.90;;;;;;5021955;28;20280;-81
2022/08/04 06:18:13;;;;;;;10.45;2.78;;;25.30;99.90;;;;;;5023662;28;20239;-82
2022/08/04 06:20:42;;;;;;;10.15;3.30;;;25.60;99.90;;;;;;5022834;28;20174;-82
2022/08/04 06:23:17;;;;;;;12.00;3.13;;;25.80;99.90;;;;;;5022405;28;20423;-82
2022/08/04 06:25:50;;;;;;;9.10;3.72;;;25.60;99.90;;;;;;5042447;28;20185;-82
2022/08/04 06:28:18;;;;;;;9.57;3.33;;;25.40;99.90;;;;;;5027143;28;20185;-82
2022/08/04 06:30:46;;;;;;;13.55;3.50;;;25.60;99.90;;;;;;5028338;28;20184;-82
2022/08/04 06:33:32;;;;;;;9.32;2.50;;;25.90;99.90;;;;;;5028912;28;20239;-82
2022/08/04 06:35:59;;;;;;;10.65;3.30;;;26.00;99.90;;;;;;5025731;28;20190;-82
2022/08/04 06:38:27;;;;;;;16.00;3.28;;;26.10;99.90;;;;;;5024710;28;20174;-81
2022/08/04 06:40:56;;;;;;;9.35;3.58;;;26.40;99.90;;;;;;5020493;28;20189;-80
2022/08/04 06:43:23;;;;;;;11.82;3.55;;;26.70;99.90;;;;;;5022831;28;20181;-80
2022/08/04 06:45:49;;;;;;;11.02;2.80;;;26.40;99.90;;;;;;5022856;28;20240;-80
2022/08/04 06:48:16;;;;;;;15.00;3.63;;;26.10;99.90;;;;;;5024115;28;20176;-80
2022/08/04 06:50:46;;;;;;;18.20;2.95;;;26.10;99.90;;;;;;5022402;28;20180;-80
2022/08/04 06:53:12;;;;;;;16.45;3.50;;;26.40;99.90;;;;;;5024489;28;20206;-82
2022/08/04 06:55:39;;;;;;;11.35;2.90;;;26.70;99.90;;;;;;5030404;28;20231;-83
2022/08/04 06:58:06;;;;;;;10.18;3.00;;;26.70;99.90;;;;;;5029949;28;20170;-83
2022/08/04 07:00:34;;;;;;;9.43;3.08;;;26.60;99.90;;;;;;5029958;28;20196;-82
2022/08/04 07:03:01;;;;;;;14.25;3.45;;;26.90;99.90;;;;;;5029548;28;20390;-82
2022/08/04 07:05:27;;;;;;;14.45;3.35;;;27.00;99.90;;;;;;5029903;28;20201;-82
2022/08/04 07:07:53;;;;;;;8.20;2.85;;;27.10;99.90;;;;;;5030254;28;20265;-82
2022/08/04 07:10:21;;;;;;;10.68;3.45;;;27.50;99.90;;;;;;5032232;28;20241;-82
2022/08/04 07:12:48;;;;;;;13.63;3.28;;;27.90;99.90;;;;;;5029322;28;20225;-82
2022/08/04 07:15:17;;;;;;;8.73;3.00;;;27.90;99.90;;;;;;5020542;28;20229;-82
2022/08/04 07:17:45;;;;;;;9.13;2.95;;;28.60;99.90;;;;;;5016208;28;20170;-80
2022/08/04 07:20:11;;;;;;;7.85;2.63;;;29.00;99.90;;;;;;5016327;28;20209;-82
2022/08/04 07:22:37;;;;;;;10.32;2.88;;;28.90;99.90;;;;;;5014791;28;20174;-83
2022/08/04 07:25:08;;;;;;;12.75;2.97;;;28.90;99.90;;;;;;5015585;28;20208;-82
2022/08/04 07:27:34;;;;;;;11.43;2.83;;;29.40;99.90;;;;;;5015901;28;20195;-82
2022/08/04 07:30:00;;;;;;;4.05;2.35;;;29.70;99.90;;;;;;5015810;28;20705;-82
2022/08/04 07:32:26;;;;;;;9.13;2.65;;;29.70;99.90;;;;;;5015752;28;20579;-82
2022/08/04 07:34:53;;;;;;;10.77;3.10;;;30.00;99.90;;;;;;5017014;28;20190;-83
2022/08/04 07:37:19;;;;;;;8.23;2.55;;;30.20;99.90;;;;;;5019505;28;20653;-83
2022/08/04 07:39:45;;;;;;;14.50;2.88;;;30.30;99.40;;;;;;5021869;28;20181;-85
2022/08/04 07:42:11;;;;;;;6.00;2.53;;;30.80;99.10;;;;;;5023058;28;20174;-83
2022/08/04 07:44:37;;;;;;;8.82;2.97;;;30.70;99.40;;;;;;5020651;28;20564;-86
2022/08/04 07:47:06;;;;;;;14.48;2.63;;;30.30;98.40;;;;;;5020230;28;20181;-82
2022/08/04 07:49:32;;;;;;;16.48;2.72;;;30.60;99.50;;;;;;5020698;28;20178;-85
2022/08/04 07:51:59;;;;;;;12.73;3.13;;;30.70;97.90;;;;;;5020590;28;20197;-82
2022/08/04 07:54:25;;;;;;;10.70;3.15;;;30.60;98.80;;;;;;5020682;28;20262;-82
2022/08/04 07:56:52;;;;;;;9.93;2.90;;;31.40;97.40;;;;;;5019599;28;20166;-83
2022/08/04 07:59:18;;;;;;;6.68;2.90;;;31.60;97.50;;;;;;5017954;28;20231;-84
2022/08/04 08:01:45;;;;;;;13.05;2.60;;;31.50;96.50;;;;;;5017794;28;20174;-85
2022/08/04 08:04:11;;;;;;;5.88;2.70;;;31.30;97.10;;;;;;5019019;28;20674;-84
2022/08/04 08:06:39;;;;;;;9.27;2.83;;;31.10;97.70;;;;;;5019352;28;20184;-85
2022/08/04 08:09:12;;;;;;;10.65;3.00;;;30.60;97.60;;;;;;5019481;28;20173;-85
2022/08/04 08:11:38;;;;;;;6.75;2.75;;;30.40;96.20;;;;;;5019237;28;20237;-85
2022/08/04 08:14:07;;;;;;;6.68;2.60;;;30.90;96.70;;;;;;5018768;28;20166;-85
2022/08/04 08:16:34;;;;;;;9.80;2.50;;;31.10;96.40;;;;;;5019470;28;20201;-85
2022/08/04 08:19:00;;;;;;;9.13;2.60;;;31.60;95.70;;;;;;5020712;28;20231;-86
2022/08/04 08:21:26;;;;;;;6.95;2.50;;;31.70;95.70;;;;;;5019369;28;20413;-86
2022/08/04 08:23:52;;;;;;;6.78;2.30;;;32.90;95.90;;;;;;5018766;28;20174;-85
2022/08/04 08:26:17;;;;;;;3.63;2.45;;;32.80;93.50;;;;;;5018845;28;20697;-85
2022/08/04 08:28:44;;;;;;;7.82;2.65;;;32.70;91.90;;;;;;5019611;28;20217;-86
2022/08/04 08:31:09;;;;;;;3.83;2.42;;;32.60;91.70;;;;;;5017917;28;20186;-85
2022/08/04 08:33:36;;;;;;;5.28;2.35;;;33.00;91.60;;;;;;5017686;28;20269;-85
2022/08/04 08:36:39;;;;;;;7.63;2.38;;;33.80;90.50;;;;;;5034289;28;20221;-84
2022/08/04 08:39:27;;;;;;;6.63;2.45;;;33.20;90.80;;;;;;5017153;28;20170;-84
2022/08/04 08:42:08;;;;;;;7.18;2.40;;;33.50;91.30;;;;;;5017602;28;20174;-83
2022/08/04 08:45:14;;;;;;;4.13;2.45;;;33.60;89.80;;;;;;5017445;28;20198;-85
2022/08/04 08:48:09;;;;;;;4.50;2.33;;;33.20;91.00;;;;;;5016897;28;20700;-84
2022/08/04 08:50:44;;;;;;;4.57;2.42;;;32.60;90.80;;;;;;5015247;28;20577;-84
2022/08/04 08:53:19;;;;;;;7.88;2.42;;;32.80;90.70;;;;;;5016409;28;20681;-84
2022/08/04 08:56:06;;;;;;;5.40;2.50;;;32.70;91.40;;;;;;5017050;28;20252;-83
2022/08/04 08:58:56;;;;;;;6.18;2.33;;;33.10;91.00;;;;;;5017529;28;20181;-82
2022/08/04 09:01:24;;;;;;;6.32;2.78;;;33.00;91.50;;;;;;5017519;28;20181;-81
2022/08/04 09:03:59;;;;;;;7.78;2.50;;;32.90;91.40;;;;;;5016351;28;20193;-81
2022/08/04 09:06:34;;;;;;;7.97;2.47;;;33.80;91.40;;;;;;5034959;28;20243;-81
2022/08/04 09:09:16;;;;;;;5.55;2.33;;;34.10;90.30;;;;;;5016910;28;20170;-81
2022/08/04 09:12:01;;;;;;;4.03;2.20;;;34.60;89.00;;;;;;5016966;28;20213;-81
2022/08/04 09:14:51;;;;;;;5.03;2.50;;;34.20;89.90;;;;;;5016108;28;20287;-81
2022/08/04 09:17:40;;;;;;;3.65;2.42;;;35.40;88.30;;;;;;5020166;28;20174;-80
2022/08/04 09:20:20;;;;;;;9.13;2.67;;;34.90;87.60;;;;;;5020391;28;20189;-82
2022/08/04 09:22:56;;;;;;;5.22;2.30;;;34.50;85.80;;;;;;5019561;28;20197;-81
2022/08/04 09:25:29;;;;;;;5.22;2.40;;;34.50;87.60;;;;;;5019547;28;20239;-82
2022/08/04 09:27:59;;;;;;;7.30;3.00;;;34.50;87.70;;;;;;5019087;28;20174;-81
2022/08/04 09:31:00;;;;;;;8.65;2.50;;;34.60;87.50;;;;;;5037161;28;20170;-84
2022/08/04 09:33:37;;;;;;;5.43;2.28;;;34.50;87.80;;;;;;4966306;28;20240;-83
2022/08/04 09:36:41;;;;;;;3.67;2.30;;;34.90;87.30;;;;;;5037876;28;20194;-84
2022/08/04 09:39:38;;;;;;;5.95;2.50;;;34.90;88.40;;;;;;5012469;28;20546;-84
2022/08/04 09:42:23;;;;;;;3.70;2.75;;;34.60;86.80;;;;;;5016528;28;20166;-84
2022/08/04 09:45:06;;;;;;;6.95;2.40;;;35.10;87.20;;;;;;5015331;28;20244;-83
2022/08/04 09:47:58;;;;;;;6.82;2.35;;;34.90;87.80;;;;;;5016307;28;20178;-83
2022/08/04 09:50:34;;;;;;;5.78;2.40;;;34.70;86.50;;;;;;5017075;28;20643;-83
2022/08/04 09:53:37;;;;;;;2.83;2.40;;;35.10;86.30;;;;;;5016669;28;20224;-82
2022/08/04 09:56:14;;;;;;;6.00;2.63;;;34.90;85.50;;;;;;5025620;28;20189;-83
2022/08/04 09:59:02;;;;;;;3.42;2.17;;;35.00;86.30;;;;;;5024823;28;20170;-83
2022/08/04 10:01:29;;;;;;;3.28;2.10;;;35.80;87.20;;;;;;5025346;28;20193;-83
2022/08/04 10:03:59;;;;;;;8.85;3.13;;;35.80;83.40;;;;;;5026145;28;20174;-82
2022/08/04 10:07:02;;;;;;;2.45;2.25;;;35.50;84.30;;;;;;5024900;28;20188;-83
2022/08/04 10:09:59;;;;;;;5.47;2.40;;;35.80;84.50;;;;;;5022714;28;20169;-83
2022/08/04 10:12:37;;;;;;;2.28;2.17;;;36.20;82.60;;;;;;5022757;28;20752;-83
2022/08/04 10:15:12;;;;;;;3.60;2.38;;;36.60;82.30;;;;;;5021412;28;20193;-83
2022/08/04 10:18:09;;;;;;;5.90;3.13;;;37.00;81.30;;;;;;5022507;28;20169;-82
2022/08/04 10:20:53;;;;;;;7.60;2.40;;;36.70;82.40;;;;;;5023005;28;20713;-84
2022/08/04 10:23:37;;;;;;;7.53;2.53;;;36.20;81.20;;;;;;5023762;28;20768;-84
2022/08/04 10:26:22;;;;;;;7.15;2.33;;;36.10;79.40;;;;;;5022254;28;20189;-83
2022/08/04 10:29:18;;;;;;;4.93;2.40;;;35.70;82.80;;;;;;5018918;28;20273;-82
2022/08/04 10:32:07;;;;;;;5.32;2.10;;;35.70;80.30;;;;;;5022448;28;20229;-83
2022/08/04 10:34:46;;;;;;;7.30;2.63;;;35.40;79.70;;;;;;4981732;28;20194;-83
2022/08/04 10:37:22;;;;;;;5.15;2.30;;;35.00;82.20;;;;;;5024848;28;20180;-84
2022/08/04 10:42:58;;;;;;;5.90;2.45;;;35.40;80.60;;;;;;5039065;28;20180;-82
2022/08/04 10:45:31;;;;;;;3.17;2.20;;;35.00;83.20;;;;;;5018903;28;20329;-83
2022/08/04 10:48:23;;;;;;;8.00;2.75;;;35.00;82.60;;;;;;5038033;28;20154;-82
2022/08/04 10:51:04;;;;;;;3.03;2.20;;;35.70;81.90;;;;;;4985069;28;20677;-84
2022/08/04 10:53:33;;;;;;;4.18;2.50;;;35.80;83.00;;;;;;5019262;28;20185;-84
2022/08/04 10:56:09;;;;;;;6.93;2.75;;;36.20;81.90;;;;;;5018919;28;20568;-84
2022/08/04 10:59:03;;;;;;;6.15;2.45;;;36.50;81.00;;;;;;5018902;28;20223;-84
2022/08/04 11:01:40;;;;;;;5.07;2.40;;;36.50;81.60;;;;;;5019811;28;20170;-83
2022/08/04 11:04:20;;;;;;;5.35;2.67;;;36.10;81.60;;;;;;5018551;28;20231;-83
2022/08/04 11:06:47;;;;;;;12.90;2.90;;;35.10;83.10;;;;;;5017166;28;20216;-82
2022/08/04 11:09:15;;;;;;;3.20;2.30;;;34.90;84.20;;;;;;5017728;28;20173;-84
2022/08/04 11:11:44;;;;;;;6.00;2.95;;;34.60;83.30;;;;;;5016998;28;20240;-83
2022/08/04 11:14:21;;;;;;;5.05;2.58;;;34.20;83.90;;;;;;5016630;28;20190;-81
2022/08/04 11:17:06;;;;;;;5.05;2.58;;;34.40;83.50;;;;;;5017346;28;20231;-81
2022/08/04 11:19:34;;;;;;;6.97;2.63;;;34.30;82.90;;;;;;5015498;28;20261;-82
2022/08/04 11:22:14;;;;;;;3.63;2.83;;;34.60;81.70;;;;;;5014749;28;20178;-80
2022/08/04 11:24:57;;;;;;;4.68;2.83;;;34.50;83.50;;;;;;5014010;28;20715;-81
2022/08/04 11:27:58;;;;;;;4.13;2.50;;;34.80;84.10;;;;;;5015472;28;20208;-82
2022/08/04 11:30:29;;;;;;;5.60;2.80;;;35.30;83.70;;;;;;5017143;28;20210;-82
2022/08/04 11:33:19;;;;;;;9.73;3.25;;;35.60;83.80;;;;;;5016732;28;20204;-82
2022/08/04 11:36:03;;;;;;;7.40;2.85;;;36.00;82.90;;;;;;5001992;28;20189;-83
2022/08/04 11:39:03;;;;;;;5.63;2.55;;;36.60;81.90;;;;;;5017461;28;20257;-82
2022/08/04 11:41:50;;;;;;;6.15;3.00;;;37.00;79.90;;;;;;5018870;28;20665;-83
2022/08/04 11:44:23;;;;;;;6.32;3.22;;;36.20;80.90;;;;;;5018585;28;20200;-82
2022/08/04 11:46:51;;;;;;;11.05;3.20;;;36.10;80.10;;;;;;5018837;28;20660;-83
2022/08/04 11:49:25;;;;;;;6.30;3.03;;;35.40;80.80;;;;;;5019265;28;20174;-82
2022/08/04 11:51:54;;;;;;;5.75;2.80;;;34.90;80.30;;;;;;5018818;28;20200;-82
2022/08/04 11:54:21;;;;;;;10.75;3.20;;;35.20;81.80;;;;;;5018888;28;20193;-82
2022/08/04 11:56:47;;;;;;;6.90;3.38;;;36.00;81.00;;;;;;5017431;28;20266;-83
2022/08/04 11:59:12;;;;;;;9.77;3.05;;;36.20;82.20;;;;;;5018615;28;20190;-82
2022/08/04 12:01:57;;;;;;;4.43;2.78;;;35.50;81.00;;;;;;5018022;28;20173;-83
2022/08/04 12:04:53;;;;;;;4.55;2.92;;;35.90;80.70;;;;;;5018208;28;20221;-82
2022/08/04 12:07:35;;;;;;;4.38;2.63;;;36.10;80.60;;;;;;5017999;28;20170;-83
2022/08/04 12:10:31;;;;;;;7.38;2.97;;;35.40;80.60;;;;;;5018106;28;20204;-83
2022/08/04 12:13:27;;;;;;;7.53;2.63;;;35.50;81.20;;;;;;5018204;28;20228;-82
2022/08/04 12:16:16;;;;;;;6.05;2.55;;;35.10;80.40;;;;;;5019024;28;20197;-83
2022/08/04 12:18:51;;;;;;;5.18;2.65;;;35.60;83.00;;;;;;5018800;28;20166;-81
2022/08/04 12:21:44;;;;;;;8.25;2.83;;;35.10;80.80;;;;;;5018521;28;20176;-83
2022/08/04 12:24:22;;;;;;;7.53;2.35;;;34.70;80.60;;;;;;5018890;28;20225;-82
2022/08/04 12:27:18;;;;;;;5.88;2.88;;;34.30;79.40;;;;;;5019264;28;20182;-82
2022/08/04 12:29:45;;;;;;;5.45;2.47;;;33.90;79.80;;;;;;5014940;28;20189;-80
2022/08/04 12:32:29;;;;;;;8.55;2.47;;;33.60;79.30;;;;;;5014949;28;20209;-81
2022/08/04 12:35:01;;;;;;;6.03;2.72;;;34.00;79.10;;;;;;5014763;28;20198;-79
2022/08/04 12:37:45;;;;;;;3.13;2.40;;;34.40;80.70;;;;;;5014227;28;20646;-80
2022/08/04 12:40:15;;;;;;;3.83;2.40;;;34.80;78.70;;;;;;5013988;28;20580;-80
2022/08/04 12:42:52;;;;;;;17.17;3.85;;;34.60;80.70;;;;;;5014085;28;20603;-80
2022/08/04 12:45:20;;;;;;;4.63;2.30;;;34.60;79.40;;;;;;5014129;28;20194;-79
2022/08/04 12:47:47;;;;;;;4.15;2.58;;;34.90;78.80;;;;;;5014725;28;20181;-79
2022/08/04 12:50:15;;;;;;;4.75;2.42;;;34.50;80.00;;;;;;5018386;28;20786;-79
2022/08/04 12:52:47;;;;;;;6.72;2.33;;;34.10;80.70;;;;;;5017501;28;20678;-79
2022/08/04 12:55:14;;;;;;;7.13;2.42;;;33.60;80.50;;;;;;5017730;28;20221;-79
2022/08/04 12:57:41;;;;;;;8.40;3.03;;;33.30;82.50;;;;;;5035417;28;20217;-79
2022/08/04 13:00:08;;;;;;;6.93;2.97;;;32.80;83.60;;;;;;5017576;28;20534;-79
2022/08/04 13:02:41;;;;;;;8.18;2.85;;;32.70;84.40;;;;;;5017426;28;20596;-80
2022/08/04 13:05:10;;;;;;;5.90;2.28;;;32.20;84.80;;;;;;5017529;28;20205;-80
2022/08/04 13:07:46;;;;;;;5.80;2.58;;;32.00;85.80;;;;;;5017438;28;20174;-80
2022/08/04 13:10:17;;;;;;;9.50;3.50;;;32.10;85.40;;;;;;5017654;28;20181;-79
2022/08/04 13:13:03;;;;;;;7.65;2.92;;;32.20;85.60;;;;;;5017041;28;20305;-80
2022/08/04 13:15:29;;;;;;;8.65;2.97;;;31.80;85.90;;;;;;5033027;28;20205;-79
2022/08/04 13:18:02;;;;;;;12.55;2.55;;;31.50;86.10;;;;;;5017563;28;20173;-80
2022/08/04 13:20:34;;;;;;;7.75;2.90;;;31.00;87.80;;;;;;5020242;28;20639;-79
2022/08/04 13:23:14;;;;;;;7.65;2.55;;;31.10;88.00;;;;;;5018521;28;20182;-79
2022/08/04 13:25:43;;;;;;;6.28;2.95;;;31.00;89.40;;;;;;5018724;28;20197;-79
2022/08/04 13:28:21;;;;;;;6.22;2.83;;;30.60;89.70;;;;;;5019224;28;20174;-80
2022/08/04 13:30:53;;;;;;;13.18;2.97;;;30.30;90.50;;;;;;5019578;28;20162;-79
2022/08/04 13:33:19;;;;;;;10.38;2.97;;;30.30;90.50;;;;;;5018751;28;20777;-79
2022/08/04 13:35:46;;;;;;;9.02;2.85;;;30.30;90.90;;;;;;5018775;28;20198;-79